createdAt,value
2023-04-26T00:01:27.515Z,32.47
2023-04-26T00:03:54.339Z,32.40
2023-04-26T00:06:20.817Z,32.43
2023-04-26T00:08:47.213Z,32.55
2023-04-26T00:11:13.591Z,32.42
2023-04-26T00:13:40.036Z,32.67
2023-04-26T00:16:06.783Z,32.68
2023-04-26T00:18:33.176Z,32.62
2023-04-26T00:20:59.591Z,32.75
2023-04-26T00:23:26.358Z,32.59
2023-04-26T00:25:52.857Z,32.40
2023-04-26T00:28:19.313Z,32.67
2023-04-26T00:30:48.758Z,32.30
2023-04-26T00:33:15.294Z,32.42
2023-04-26T00:35:41.669Z,32.56
2023-04-26T00:38:08.090Z,32.60
2023-04-26T00:40:35.409Z,32.63
2023-04-26T00:43:02.652Z,32.50
2023-04-26T00:45:29.097Z,32.87
2023-04-26T00:47:59.160Z,32.53
2023-04-26T00:50:26.098Z,32.48
2023-04-26T00:52:52.462Z,32.81
2023-04-26T00:55:19.033Z,32.44
2023-04-26T00:57:45.788Z,32.36
2023-04-26T01:00:12.405Z,32.55
2023-04-26T01:02:39.033Z,32.50
2023-04-26T01:05:06.828Z,32.72
2023-04-26T01:07:33.504Z,32.67
2023-04-26T01:10:04.894Z,32.60
2023-04-26T01:12:32.221Z,32.62
2023-04-26T01:14:59.228Z,32.58
2023-04-26T01:17:28.467Z,32.68
2023-04-26T01:19:56.872Z,32.69
2023-04-26T01:22:23.291Z,32.67
2023-04-26T01:24:50.420Z,32.83
2023-04-26T01:27:17.069Z,32.80
2023-04-26T01:29:43.548Z,32.72
2023-04-26T01:32:09.937Z,32.66
2023-04-26T01:34:37.275Z,32.69
2023-04-26T01:37:03.751Z,32.62
2023-04-26T01:39:30.273Z,32.73
2023-04-26T01:41:58.418Z,32.49
2023-04-26T01:44:24.800Z,32.62
2023-04-26T01:46:51.808Z,32.52
2023-04-26T01:49:18.276Z,32.79
2023-04-26T01:51:46.798Z,32.57
2023-04-26T01:54:13.185Z,32.65
2023-04-26T01:56:39.823Z,32.76
2023-04-26T01:59:06.351Z,32.76
2023-04-26T02:01:33.028Z,32.51
2023-04-26T02:03:59.532Z,32.55
2023-04-26T02:06:26.499Z,32.58
2023-04-26T02:08:53.616Z,32.61
2023-04-26T02:11:21.160Z,32.64
2023-04-26T02:13:47.667Z,32.66
2023-04-26T02:16:16.446Z,32.57
2023-04-26T02:18:42.904Z,32.63
2023-04-26T02:21:10.589Z,32.63
2023-04-26T02:23:36.981Z,32.70
2023-04-26T02:26:03.589Z,32.63
2023-04-26T02:28:30.221Z,32.94
2023-04-26T02:30:56.802Z,32.88
2023-04-26T02:33:23.850Z,32.80
2023-04-26T02:35:50.362Z,32.67
2023-04-26T02:38:17.352Z,32.64
2023-04-26T02:40:43.766Z,32.53
2023-04-26T02:43:11.900Z,32.60
2023-04-26T02:45:42.885Z,32.76
2023-04-26T02:48:11.165Z,32.63
2023-04-26T02:50:38.161Z,32.74
2023-04-26T02:53:05.454Z,32.66
2023-04-26T02:55:32.235Z,32.59
2023-04-26T02:57:58.757Z,32.67
2023-04-26T03:00:25.506Z,32.74
2023-04-26T03:02:52.440Z,32.72
2023-04-26T03:05:19.948Z,32.77
2023-04-26T03:07:46.406Z,32.94
2023-04-26T03:10:12.960Z,32.75
2023-04-26T03:12:40.130Z,32.75
2023-04-26T03:15:06.933Z,32.87
2023-04-26T03:17:33.479Z,32.85
2023-04-26T03:20:02.334Z,32.79
2023-04-26T03:22:29.234Z,32.72
2023-04-26T03:24:55.798Z,32.76
2023-04-26T03:27:22.356Z,32.65
2023-04-26T03:29:48.783Z,32.69
2023-04-26T03:32:15.346Z,32.70
2023-04-26T03:34:41.934Z,32.69
2023-04-26T03:37:08.407Z,32.80
2023-04-26T03:39:35.683Z,32.83
2023-04-26T03:42:03.949Z,33.00
2023-04-26T03:44:31.304Z,32.90
2023-04-26T03:46:57.841Z,32.88
2023-04-26T03:49:24.299Z,32.85
2023-04-26T03:51:50.723Z,33.08
2023-04-26T03:54:17.130Z,32.77
2023-04-26T03:56:43.590Z,32.80
2023-04-26T03:59:11.713Z,32.99
2023-04-26T04:01:38.623Z,32.78
2023-04-26T04:04:05.282Z,33.04
2023-04-26T04:06:32.751Z,32.87
2023-04-26T04:09:00.590Z,32.82
2023-04-26T04:11:27.099Z,32.96
2023-04-26T04:13:53.509Z,33.12
2023-04-26T04:16:19.994Z,33.00
2023-04-26T04:18:46.954Z,32.85
2023-04-26T04:21:13.797Z,32.52
2023-04-26T04:23:40.287Z,32.78
2023-04-26T04:26:09.831Z,32.79
2023-04-26T04:28:38.009Z,32.82
2023-04-26T04:31:04.428Z,32.73
2023-04-26T04:33:30.997Z,32.82
2023-04-26T04:36:00.412Z,32.56
2023-04-26T04:38:26.958Z,32.48
2023-04-26T04:40:53.539Z,32.57
2023-04-26T04:43:20.104Z,32.92
2023-04-26T04:45:46.520Z,32.78
2023-04-26T04:48:13.027Z,32.81
2023-04-26T04:50:39.680Z,32.61
2023-04-26T04:53:06.158Z,32.45
2023-04-26T04:55:33.696Z,32.84
2023-04-26T04:58:01.653Z,33.12
2023-04-26T05:00:31.053Z,33.16
2023-04-26T05:03:03.756Z,33.11
2023-04-26T05:05:31.624Z,33.00
2023-04-26T05:07:58.187Z,32.82
2023-04-26T05:10:26.250Z,32.94
2023-04-26T05:12:53.468Z,32.79
2023-04-26T05:15:19.983Z,32.70
2023-04-26T05:17:46.504Z,32.72
2023-04-26T05:20:18.298Z,32.66
2023-04-26T05:22:45.406Z,32.98
2023-04-26T05:25:13.406Z,32.87
2023-04-26T05:27:40.742Z,32.94
2023-04-26T05:30:15.062Z,32.64
2023-04-26T05:32:47.209Z,33.00
2023-04-26T05:35:17.720Z,32.72
2023-04-26T05:37:44.967Z,32.80
2023-04-26T05:40:13.342Z,32.69
2023-04-26T05:42:40.340Z,32.77
2023-04-26T05:45:08.432Z,32.70
2023-04-26T05:47:34.989Z,32.96
2023-04-26T05:50:01.515Z,33.29
2023-04-26T05:52:28.325Z,33.13
2023-04-26T05:54:54.793Z,32.92
2023-04-26T05:57:21.455Z,32.88
2023-04-26T05:59:48.114Z,32.79
2023-04-26T06:02:14.775Z,32.93
2023-04-26T06:04:41.597Z,33.09
2023-04-26T06:07:11.793Z,32.74
2023-04-26T06:09:38.770Z,32.98
2023-04-26T06:12:05.519Z,32.87
2023-04-26T06:14:35.174Z,32.82
2023-04-26T06:17:06.227Z,33.00
2023-04-26T06:19:33.181Z,32.62
2023-04-26T06:21:59.883Z,32.82
2023-04-26T06:24:27.173Z,33.07
2023-04-26T06:26:53.653Z,32.84
2023-04-26T06:29:20.749Z,33.00
2023-04-26T06:31:48.036Z,32.89
2023-04-26T06:34:14.656Z,32.84
2023-04-26T06:36:41.560Z,32.97
2023-04-26T06:39:08.960Z,33.17
2023-04-26T06:41:35.575Z,32.98
2023-04-26T06:44:02.230Z,33.05
2023-04-26T06:46:31.063Z,33.26
2023-04-26T06:48:57.626Z,33.19
2023-04-26T06:51:24.851Z,32.90
2023-04-26T06:53:52.523Z,33.07
2023-04-26T06:56:19.217Z,32.95
2023-04-26T06:59:01.344Z,33.19
2023-04-26T07:01:29.306Z,32.94
2023-04-26T07:03:57.558Z,32.87
2023-04-26T07:06:24.533Z,32.73
2023-04-26T07:08:51.298Z,32.78
2023-04-26T07:11:17.891Z,32.90
2023-04-26T07:13:44.592Z,32.77
2023-04-26T07:16:11.052Z,32.65
2023-04-26T07:18:37.476Z,32.68
2023-04-26T07:21:03.984Z,32.49
2023-04-26T07:23:30.366Z,32.58
2023-04-26T07:25:57.769Z,32.62
2023-04-26T07:28:24.403Z,32.74
2023-04-26T07:30:50.857Z,32.52
2023-04-26T07:33:17.338Z,32.62
2023-04-26T07:35:44.012Z,32.29
2023-04-26T07:38:10.793Z,32.55
2023-04-26T07:40:37.318Z,32.54
2023-04-26T07:43:04.112Z,32.58
2023-04-26T07:45:30.602Z,32.30
2023-04-26T07:47:57.159Z,32.11
2023-04-26T07:50:24.424Z,32.00
2023-04-26T07:52:51.293Z,32.22
2023-04-26T07:55:17.988Z,32.56
2023-04-26T07:57:44.437Z,31.65
2023-04-26T08:00:12.116Z,31.69
2023-04-26T08:02:44.707Z,31.50
2023-04-26T08:05:11.969Z,30.92
2023-04-26T08:07:38.580Z,30.41
2023-04-26T08:10:05.404Z,29.54
2023-04-26T08:12:32.635Z,29.67
2023-04-26T08:14:59.943Z,29.07
2023-04-26T08:17:26.744Z,29.29
2023-04-26T08:19:53.217Z,27.91
2023-04-26T08:22:22.537Z,27.92
2023-04-26T08:24:54.979Z,28.07
2023-04-26T08:27:21.543Z,28.38
2023-04-26T08:29:48.259Z,28.52
2023-04-26T08:32:14.674Z,28.76
2023-04-26T08:34:41.299Z,28.67
2023-04-26T08:37:07.726Z,29.03
2023-04-26T08:39:34.145Z,28.95
2023-04-26T08:42:12.530Z,28.91
2023-04-26T08:44:38.926Z,29.03
2023-04-26T08:47:10.617Z,29.06
2023-04-26T08:49:43.633Z,29.34
2023-04-26T08:52:14.635Z,29.24
2023-04-26T08:54:41.067Z,29.05
2023-04-26T08:57:08.151Z,29.14
2023-04-26T08:59:36.175Z,29.15
2023-04-26T09:02:05.638Z,29.29
2023-04-26T09:04:32.329Z,29.60
2023-04-26T09:07:02.600Z,29.59
2023-04-26T09:09:29.708Z,29.64
2023-04-26T09:11:56.789Z,28.33
2023-04-26T09:14:23.552Z,28.30
2023-04-26T09:16:50.018Z,28.74
2023-04-26T09:19:16.483Z,28.81
2023-04-26T09:21:46.594Z,27.88
2023-04-26T09:24:13.264Z,28.21
2023-04-26T09:26:39.693Z,28.25
2023-04-26T09:29:12.561Z,28.36
2023-04-26T09:31:40.061Z,28.33
2023-04-26T09:34:06.627Z,28.12
2023-04-26T09:36:33.062Z,27.57
2023-04-26T09:38:59.726Z,27.99
2023-04-26T09:41:41.648Z,28.06
2023-04-26T09:44:20.021Z,27.65
2023-04-26T09:46:57.195Z,27.57
2023-04-26T09:49:23.718Z,27.75
2023-04-26T09:52:00.237Z,27.81
2023-04-26T09:54:37.667Z,27.69
2023-04-26T09:57:04.279Z,27.84
2023-04-26T09:59:40.980Z,27.90
2023-04-26T10:02:13.537Z,28.21
2023-04-26T10:04:39.983Z,28.15
2023-04-26T10:07:07.162Z,27.74
2023-04-26T10:09:33.704Z,27.41
2023-04-26T10:12:00.272Z,26.61
2023-04-26T10:14:26.700Z,26.37
2023-04-26T10:16:54.694Z,26.21
2023-04-26T10:19:21.614Z,25.00
2023-04-26T10:21:48.436Z,25.75
2023-04-26T10:24:15.021Z,26.02
2023-04-26T10:26:49.442Z,26.19
2023-04-26T10:29:15.935Z,26.22
2023-04-26T10:32:18.072Z,26.33
2023-04-26T10:34:44.568Z,26.34
2023-04-26T10:37:11.253Z,26.74
2023-04-26T10:39:38.591Z,26.68
2023-04-26T10:42:24.768Z,27.49
2023-04-26T10:44:55.720Z,27.59
2023-04-26T10:47:28.197Z,27.39
2023-04-26T10:50:03.636Z,27.59
2023-04-26T10:52:31.792Z,27.29
2023-04-26T10:54:58.667Z,26.53
2023-04-26T10:57:45.856Z,26.24
2023-04-26T11:00:16.507Z,26.09
2023-04-26T11:02:52.830Z,25.62
2023-04-26T11:05:34.888Z,25.72
2023-04-26T11:08:27.559Z,25.42
2023-04-26T11:10:57.824Z,25.47
2023-04-26T11:13:24.196Z,25.46
2023-04-26T11:15:54.010Z,25.21
2023-04-26T11:18:23.783Z,25.15
2023-04-26T11:20:50.218Z,25.49
2023-04-26T11:23:17.843Z,25.45
2023-04-26T11:25:44.294Z,25.44
2023-04-26T11:28:10.855Z,25.30
2023-04-26T11:30:37.256Z,25.60
2023-04-26T11:33:06.631Z,25.49
2023-04-26T11:35:33.740Z,25.66
2023-04-26T11:38:03.366Z,25.50
2023-04-26T11:40:32.796Z,25.71
2023-04-26T11:43:00.187Z,26.94
2023-04-26T11:45:26.879Z,26.63
2023-04-26T11:47:53.433Z,25.36
2023-04-26T11:50:20.864Z,24.42
2023-04-26T11:52:47.290Z,24.29
2023-04-26T11:55:14.431Z,24.78
2023-04-26T11:57:40.933Z,24.52
2023-04-26T12:00:10.369Z,24.54
2023-04-26T12:02:36.993Z,24.62
2023-04-26T12:05:04.288Z,24.82
2023-04-26T12:07:40.352Z,24.62
2023-04-26T12:10:16.673Z,24.75
2023-04-26T12:12:50.955Z,24.93
2023-04-26T12:15:18.031Z,24.68
2023-04-26T12:18:06.238Z,24.82
2023-04-26T12:20:34.953Z,24.35
2023-04-26T12:23:08.217Z,23.96
2023-04-26T12:25:35.078Z,23.09
2023-04-26T12:28:01.771Z,22.96
2023-04-26T12:30:28.484Z,22.84
2023-04-26T12:33:15.683Z,23.44
2023-04-26T12:35:43.379Z,23.22
2023-04-26T12:38:10.069Z,23.45
2023-04-26T12:40:36.817Z,23.23
2023-04-26T12:43:03.444Z,23.46
2023-04-26T12:45:29.987Z,23.65
2023-04-26T12:47:56.650Z,23.34
2023-04-26T12:50:23.226Z,23.81
2023-04-26T12:52:49.718Z,23.55
2023-04-26T12:55:16.274Z,23.40
2023-04-26T12:57:43.199Z,23.86
2023-04-26T13:00:10.687Z,23.62
2023-04-26T13:02:37.281Z,23.75
2023-04-26T13:05:05.035Z,23.54
2023-04-26T13:07:31.880Z,23.81
2023-04-26T13:09:58.778Z,24.14
2023-04-26T13:12:25.226Z,24.02
2023-04-26T13:14:51.783Z,24.25
2023-04-26T13:17:18.256Z,23.83
2023-04-26T13:19:44.650Z,24.35
2023-04-26T13:22:11.442Z,24.22
2023-04-26T13:24:37.899Z,24.34
2023-04-26T13:27:04.819Z,24.28
2023-04-26T13:29:34.021Z,24.44
2023-04-26T13:32:00.703Z,24.38
2023-04-26T13:34:27.251Z,24.49
2023-04-26T13:36:53.811Z,24.35
2023-04-26T13:39:20.503Z,24.36
2023-04-26T13:41:46.901Z,24.30
2023-04-26T13:44:14.214Z,24.24
2023-04-26T13:46:41.079Z,24.31
2023-04-26T13:49:08.261Z,24.17
2023-04-26T13:51:34.875Z,24.19
2023-04-26T13:54:01.366Z,24.23
2023-04-26T13:56:27.804Z,24.05
2023-04-26T13:58:54.665Z,23.88
2023-04-26T14:01:21.164Z,23.47
2023-04-26T14:03:47.845Z,22.98
2023-04-26T14:06:14.321Z,23.71
2023-04-26T14:08:40.729Z,23.18
2023-04-26T14:11:07.943Z,22.46
2023-04-26T14:13:34.372Z,22.06
2023-04-26T14:16:00.981Z,21.90
2023-04-26T14:18:27.501Z,21.94
2023-04-26T14:20:53.929Z,21.88
2023-04-26T14:23:20.434Z,21.10
2023-04-26T14:25:46.843Z,21.01
2023-04-26T14:28:16.493Z,20.80
2023-04-26T14:30:43.141Z,20.75
2023-04-26T14:33:09.650Z,20.90
2023-04-26T14:35:36.182Z,20.69
2023-04-26T14:38:02.737Z,21.07
2023-04-26T14:40:29.413Z,21.36
2023-04-26T14:42:56.319Z,21.72
2023-04-26T14:45:30.462Z,21.29
2023-04-26T14:48:03.929Z,21.73
2023-04-26T14:50:30.467Z,21.79
2023-04-26T14:52:56.938Z,21.93
2023-04-26T14:55:23.509Z,21.08
2023-04-26T14:57:50.042Z,20.14
2023-04-26T15:00:17.012Z,20.03
2023-04-26T15:02:43.899Z,19.76
2023-04-26T15:05:11.192Z,20.27
2023-04-26T15:07:38.096Z,20.32
2023-04-26T15:10:05.602Z,20.53
2023-04-26T15:12:32.129Z,20.84
2023-04-26T15:14:58.566Z,20.91
2023-04-26T15:17:25.066Z,21.01
2023-04-26T15:19:51.579Z,20.90
2023-04-26T15:22:18.028Z,21.27
2023-04-26T15:24:45.039Z,21.19
2023-04-26T15:27:12.693Z,20.94
2023-04-26T15:29:39.181Z,21.56
2023-04-26T15:32:05.804Z,21.30
2023-04-26T15:34:37.420Z,21.16
2023-04-26T15:37:04.645Z,21.29
2023-04-26T15:39:31.186Z,21.75
2023-04-26T15:41:57.919Z,21.72
2023-04-26T15:44:24.319Z,21.82
2023-04-26T15:46:51.242Z,21.91
2023-04-26T15:49:17.619Z,21.88
2023-04-26T15:51:44.077Z,21.94
2023-04-26T15:54:10.546Z,22.13
2023-04-26T15:56:37.066Z,22.30
2023-04-26T15:59:03.486Z,22.49
2023-04-26T16:01:29.951Z,22.50
2023-04-26T16:03:56.674Z,22.36
2023-04-26T16:06:23.530Z,22.77
2023-04-26T16:08:50.009Z,22.39
2023-04-26T16:11:16.583Z,22.68
2023-04-26T16:13:44.493Z,22.60
2023-04-26T16:16:11.480Z,22.82
2023-04-26T16:18:40.964Z,22.67
2023-04-26T16:21:09.405Z,22.95
2023-04-26T16:23:36.152Z,23.18
2023-04-26T16:26:02.818Z,23.23
2023-04-26T16:28:29.273Z,23.17
2023-04-26T16:30:56.011Z,23.27
2023-04-26T16:33:23.379Z,23.39
2023-04-26T16:35:51.999Z,23.56
2023-04-26T16:38:19.060Z,23.34
2023-04-26T16:40:52.685Z,23.58
2023-04-26T16:43:19.360Z,23.45
2023-04-26T16:45:46.263Z,23.69
2023-04-26T16:48:12.772Z,24.11
2023-04-26T16:50:39.270Z,24.09
2023-04-26T16:53:05.760Z,24.19
2023-04-26T16:55:32.252Z,24.28
2023-04-26T16:57:58.717Z,24.30
2023-04-26T17:00:25.303Z,24.21
2023-04-26T17:02:52.094Z,24.30
2023-04-26T17:05:18.743Z,24.46
2023-04-26T17:07:45.123Z,24.59
2023-04-26T17:10:12.107Z,24.61
2023-04-26T17:12:38.654Z,24.43
2023-04-26T17:15:05.458Z,24.89
2023-04-26T17:17:31.980Z,24.53
2023-04-26T17:19:58.520Z,24.77
2023-04-26T17:22:25.024Z,24.45
2023-04-26T17:24:51.567Z,24.47
2023-04-26T17:27:18.559Z,24.40
2023-04-26T17:29:45.125Z,23.56
2023-04-26T17:32:11.590Z,22.92
2023-04-26T17:34:38.824Z,22.62
2023-04-26T17:37:05.361Z,22.39
2023-04-26T17:39:31.891Z,21.75
2023-04-26T17:41:58.388Z,22.95
2023-04-26T17:44:24.865Z,22.80
2023-04-26T17:46:51.306Z,23.05
2023-04-26T17:49:17.850Z,22.92
2023-04-26T17:51:44.446Z,23.36
2023-04-26T17:54:10.997Z,23.25
2023-04-26T17:56:37.477Z,23.46
2023-04-26T17:59:03.961Z,23.86
2023-04-26T18:01:30.631Z,23.73
2023-04-26T18:03:57.443Z,23.92
2023-04-26T18:06:24.087Z,23.91
2023-04-26T18:08:50.667Z,24.21
2023-04-26T18:11:18.770Z,24.12
2023-04-26T18:13:47.868Z,24.44
2023-04-26T18:16:16.890Z,24.41
2023-04-26T18:18:43.701Z,24.34
2023-04-26T18:21:10.760Z,24.42
2023-04-26T18:23:37.382Z,24.42
2023-04-26T18:26:03.907Z,24.80
2023-04-26T18:28:30.996Z,24.60
2023-04-26T18:30:57.905Z,24.84
2023-04-26T18:33:24.673Z,24.78
2023-04-26T18:35:51.322Z,25.12
2023-04-26T18:38:17.853Z,24.99
2023-04-26T18:40:44.748Z,25.16
2023-04-26T18:43:11.517Z,25.05
2023-04-26T18:45:38.099Z,25.37
2023-04-26T18:48:04.965Z,25.61
2023-04-26T18:50:31.496Z,25.17
2023-04-26T18:52:58.264Z,25.49
2023-04-26T18:55:26.058Z,25.63
2023-04-26T18:57:52.605Z,25.41
2023-04-26T19:00:19.265Z,25.55
2023-04-26T19:02:46.237Z,25.70
2023-04-26T19:05:13.197Z,25.58
2023-04-26T19:07:40.774Z,25.92
2023-04-26T19:10:07.646Z,26.08
2023-04-26T19:12:34.174Z,25.87
2023-04-26T19:15:00.910Z,26.01
2023-04-26T19:17:29.527Z,26.07
2023-04-26T19:19:56.227Z,25.95
2023-04-26T19:22:22.993Z,26.39
2023-04-26T19:24:50.125Z,26.21
2023-04-26T19:27:16.971Z,26.26
2023-04-26T19:29:43.634Z,26.01
2023-04-26T19:32:10.324Z,26.17
2023-04-26T19:34:38.882Z,26.33
2023-04-26T19:37:05.416Z,26.15
2023-04-26T19:39:32.037Z,26.20
2023-04-26T19:42:01.263Z,26.09
2023-04-26T19:44:27.771Z,26.13
2023-04-26T19:46:54.328Z,25.65
2023-04-26T19:49:21.910Z,26.03
2023-04-26T19:51:48.470Z,26.16
2023-04-26T19:54:16.716Z,25.98
2023-04-26T19:56:43.176Z,25.75
2023-04-26T19:59:09.697Z,26.28
2023-04-26T20:01:36.583Z,25.78
2023-04-26T20:04:03.418Z,25.98
2023-04-26T20:06:30.100Z,25.97
2023-04-26T20:08:56.665Z,25.84
2023-04-26T20:11:23.840Z,26.03
2023-04-26T20:13:50.407Z,25.97
2023-04-26T20:16:17.130Z,25.75
2023-04-26T20:18:43.766Z,26.02
2023-04-26T20:21:10.367Z,25.99
2023-04-26T20:23:37.042Z,25.66
2023-04-26T20:26:03.884Z,25.92
2023-04-26T20:28:30.501Z,26.16
2023-04-26T20:30:57.037Z,25.81
2023-04-26T20:33:23.596Z,26.10
2023-04-26T20:35:50.122Z,26.25
2023-04-26T20:38:16.701Z,26.29
2023-04-26T20:40:43.201Z,26.47
2023-04-26T20:43:09.747Z,26.47
2023-04-26T20:45:37.523Z,26.49
2023-04-26T20:48:04.197Z,26.75
2023-04-26T20:50:31.121Z,26.98
2023-04-26T20:52:57.721Z,26.99
2023-04-26T20:55:24.289Z,26.97
2023-04-26T20:57:50.968Z,27.25
2023-04-26T21:00:17.628Z,27.24
2023-04-26T21:02:44.228Z,27.20
2023-04-26T21:05:10.924Z,27.43
2023-04-26T21:07:37.384Z,27.46
2023-04-26T21:10:04.190Z,27.50
2023-04-26T21:12:30.865Z,27.61
2023-04-26T21:14:57.394Z,27.67
2023-04-26T21:17:23.885Z,27.44
2023-04-26T21:19:50.940Z,27.75
2023-04-26T21:22:17.421Z,27.57
2023-04-26T21:24:43.916Z,27.71
2023-04-26T21:27:10.696Z,27.92
2023-04-26T21:29:37.302Z,28.01
2023-04-26T21:32:03.945Z,28.03
2023-04-26T21:34:30.859Z,27.80
2023-04-26T21:36:57.368Z,27.86
2023-04-26T21:39:23.920Z,28.25
2023-04-26T21:41:50.373Z,28.17
2023-04-26T21:44:16.820Z,28.29
2023-04-26T21:46:43.275Z,28.30
2023-04-26T21:49:10.444Z,28.31
2023-04-26T21:51:37.395Z,28.00
2023-04-26T21:54:03.820Z,28.28
2023-04-26T21:56:30.426Z,28.56
2023-04-26T21:58:56.833Z,28.64
2023-04-26T22:01:23.328Z,28.12
2023-04-26T22:03:50.020Z,28.37
2023-04-26T22:06:16.621Z,28.52
2023-04-26T22:08:43.061Z,28.46
2023-04-26T22:11:09.522Z,28.43
2023-04-26T22:13:35.968Z,28.62
2023-04-26T22:16:02.516Z,28.65
2023-04-26T22:18:29.367Z,28.60
2023-04-26T22:20:56.065Z,28.69
2023-04-26T22:23:22.594Z,28.51
2023-04-26T22:25:49.123Z,28.71
2023-04-26T22:28:15.642Z,28.70
2023-04-26T22:30:42.132Z,28.88
2023-04-26T22:33:09.936Z,28.61
2023-04-26T22:35:36.441Z,28.79
2023-04-26T22:38:02.921Z,28.84
2023-04-26T22:40:29.442Z,28.63
2023-04-26T22:42:55.968Z,28.91
2023-04-26T22:45:22.818Z,29.21
2023-04-26T22:47:49.439Z,29.02
2023-04-26T22:50:16.228Z,29.08
2023-04-26T22:52:42.653Z,29.32
2023-04-26T22:55:09.371Z,29.48
2023-04-26T22:57:35.800Z,29.29
2023-04-26T23:00:02.613Z,29.37
2023-04-26T23:02:29.179Z,29.55
2023-04-26T23:04:55.869Z,29.51
2023-04-26T23:07:22.357Z,29.40
2023-04-26T23:09:48.807Z,29.49
2023-04-26T23:12:21.161Z,29.70
2023-04-26T23:14:48.585Z,29.31
2023-04-26T23:17:15.099Z,29.49
2023-04-26T23:19:42.267Z,29.68
2023-04-26T23:22:08.745Z,29.77
2023-04-26T23:24:35.249Z,29.43
2023-04-26T23:27:02.548Z,29.80
2023-04-26T23:29:28.935Z,29.77
2023-04-26T23:31:55.512Z,29.59
2023-04-26T23:34:22.027Z,29.40
2023-04-26T23:36:48.433Z,29.68
2023-04-26T23:39:15.452Z,29.44
2023-04-26T23:41:42.134Z,29.61
2023-04-26T23:44:08.658Z,29.64
2023-04-26T23:46:35.129Z,29.78
2023-04-26T23:49:01.569Z,29.61
2023-04-26T23:51:28.040Z,29.67
2023-04-26T23:53:54.494Z,29.26
2023-04-26T23:56:21.013Z,29.40
2023-04-26T23:58:47.470Z,29.66
